createdAt,value
2018-07-17T00:00:13.019Z,8.27
2018-07-17T00:00:44.256Z,8.17
2018-07-17T00:01:15.465Z,8.37
2018-07-17T00:01:46.686Z,8.43
2018-07-17T00:02:17.860Z,8.07
2018-07-17T00:02:49.040Z,8.40
2018-07-17T00:03:20.272Z,8.30
2018-07-17T00:03:51.494Z,7.97
2018-07-17T00:04:22.678Z,8.47
2018-07-17T00:04:53.852Z,8.30
2018-07-17T00:05:25.155Z,8.13
2018-07-17T00:05:56.352Z,7.97
2018-07-17T00:06:27.531Z,8.07
2018-07-17T00:06:58.711Z,8.10
2018-07-17T00:07:29.956Z,8.03
2018-07-17T00:08:01.147Z,8.20
2018-07-17T00:08:32.358Z,8.60
2018-07-17T00:09:03.538Z,8.60
2018-07-17T00:09:34.847Z,8.63
2018-07-17T00:10:06.026Z,8.47
2018-07-17T00:10:37.360Z,8.27
2018-07-17T00:11:08.596Z,8.90
2018-07-17T00:11:39.824Z,8.97
2018-07-17T00:12:10.998Z,8.27
2018-07-17T00:12:42.261Z,8.27
2018-07-17T00:13:13.405Z,8.63
2018-07-17T00:13:44.637Z,8.20
2018-07-17T00:14:15.837Z,9.07
2018-07-17T00:14:47.107Z,8.07
2018-07-17T00:15:18.288Z,7.90
2018-07-17T00:15:49.467Z,8.03
2018-07-17T00:16:20.644Z,8.27
2018-07-17T00:16:51.817Z,8.90
2018-07-17T00:17:23.037Z,7.87
2018-07-17T00:17:54.273Z,8.87
2018-07-17T00:18:25.485Z,8.33
2018-07-17T00:18:56.677Z,8.70
2018-07-17T00:19:27.854Z,8.83
2018-07-17T00:19:59.081Z,8.60
2018-07-17T00:20:30.269Z,8.27
2018-07-17T00:21:01.485Z,9.07
2018-07-17T00:21:32.708Z,9.07
2018-07-17T00:22:03.875Z,9.10
2018-07-17T00:22:35.049Z,8.90
2018-07-17T00:23:06.228Z,8.50
2018-07-17T00:23:37.395Z,9.70
2018-07-17T00:24:08.570Z,9.00
2018-07-17T00:24:39.805Z,8.67
2018-07-17T00:25:11.080Z,9.27
2018-07-17T00:25:42.321Z,9.03
2018-07-17T00:26:13.553Z,8.70
2018-07-17T00:26:44.787Z,8.87
2018-07-17T00:27:16.123Z,8.80
2018-07-17T00:27:47.306Z,8.77
2018-07-17T00:28:18.484Z,9.30
2018-07-17T00:28:49.929Z,9.10
2018-07-17T00:29:21.104Z,8.67
2018-07-17T00:29:52.416Z,8.30
2018-07-17T00:30:23.737Z,9.30
2018-07-17T00:30:54.961Z,9.67
2018-07-17T00:31:26.889Z,9.40
2018-07-17T00:31:58.157Z,9.80
2018-07-17T00:32:29.395Z,10.13
2018-07-17T00:33:00.586Z,10.33
2018-07-17T00:33:31.801Z,9.80
2018-07-17T00:34:03.012Z,10.17
2018-07-17T00:34:34.184Z,10.00
2018-07-17T00:35:05.350Z,10.17
2018-07-17T00:35:36.541Z,10.67
2018-07-17T00:36:07.761Z,10.33
2018-07-17T00:36:38.939Z,10.73
2018-07-17T00:37:10.166Z,10.37
2018-07-17T00:37:41.386Z,10.07
2018-07-17T00:38:12.625Z,10.20
2018-07-17T00:38:43.865Z,10.77
2018-07-17T00:39:15.049Z,10.50
2018-07-17T00:39:46.261Z,10.60
2018-07-17T00:40:17.477Z,10.80
2018-07-17T00:40:48.652Z,10.97
2018-07-17T00:41:26.076Z,11.50
2018-07-17T00:41:57.815Z,10.33
2018-07-17T00:42:29.048Z,11.13
2018-07-17T00:43:00.312Z,11.00
2018-07-17T00:43:31.541Z,11.47
2018-07-17T00:44:02.779Z,11.10
2018-07-17T00:44:40.031Z,11.27
2018-07-17T00:45:11.280Z,10.83
2018-07-17T00:45:42.461Z,11.67
2018-07-17T00:46:13.643Z,11.47
2018-07-17T00:46:44.814Z,10.70
2018-07-17T00:47:15.995Z,11.00
2018-07-17T00:47:47.168Z,10.60
2018-07-17T00:48:18.350Z,11.13
2018-07-17T00:48:49.520Z,10.33
2018-07-17T00:49:20.704Z,9.97
2018-07-17T00:49:51.926Z,11.00
2018-07-17T00:50:23.148Z,11.17
2018-07-17T00:50:54.319Z,10.67
2018-07-17T00:51:25.540Z,10.97
2018-07-17T00:51:56.718Z,11.63
2018-07-17T00:52:27.943Z,11.47
2018-07-17T00:52:59.161Z,11.23
2018-07-17T00:53:30.401Z,11.43
2018-07-17T00:54:01.591Z,11.23
2018-07-17T00:54:32.813Z,11.43
2018-07-17T00:55:04.011Z,11.50
2018-07-17T00:55:35.286Z,11.33
2018-07-17T00:56:06.486Z,11.63
2018-07-17T00:56:37.719Z,11.83
2018-07-17T00:57:08.944Z,11.87
2018-07-17T00:57:40.124Z,11.50
2018-07-17T00:58:11.288Z,11.53
2018-07-17T00:58:42.529Z,11.13
2018-07-17T00:59:13.765Z,11.77
2018-07-17T00:59:45.008Z,12.03
2018-07-17T01:00:16.193Z,12.27
2018-07-17T01:00:47.503Z,12.17
2018-07-17T01:01:18.689Z,12.27
2018-07-17T01:01:49.976Z,12.27
2018-07-17T01:02:21.165Z,11.97
2018-07-17T01:02:52.340Z,12.13
2018-07-17T01:03:23.514Z,11.80
2018-07-17T01:03:54.747Z,12.17
2018-07-17T01:04:25.985Z,11.97
2018-07-17T01:04:57.217Z,12.40
2018-07-17T01:05:28.397Z,12.07
2018-07-17T01:05:59.620Z,12.27
2018-07-17T01:06:30.803Z,12.60
2018-07-17T01:07:02.020Z,12.60
2018-07-17T01:07:33.237Z,12.53
2018-07-17T01:08:04.417Z,12.57
2018-07-17T01:08:35.596Z,11.50
2018-07-17T01:09:07.006Z,12.20
2018-07-17T01:09:38.207Z,12.63
2018-07-17T01:10:09.950Z,13.63
2018-07-17T01:10:41.197Z,13.03
2018-07-17T01:11:12.400Z,13.40
2018-07-17T01:11:43.577Z,12.20
2018-07-17T01:12:14.812Z,13.73
2018-07-17T01:12:46.002Z,13.67
2018-07-17T01:13:17.239Z,13.77
2018-07-17T01:13:48.521Z,12.97
2018-07-17T01:14:19.705Z,12.47
2018-07-17T01:14:50.869Z,13.13
2018-07-17T01:15:22.053Z,13.30
2018-07-17T01:15:53.236Z,12.97
2018-07-17T01:16:24.414Z,13.00
2018-07-17T01:16:55.596Z,13.37
2018-07-17T01:17:26.768Z,12.80
2018-07-17T01:17:58.133Z,13.53
2018-07-17T01:18:29.323Z,13.77
2018-07-17T01:19:00.536Z,13.63
2018-07-17T01:19:31.717Z,12.67
2018-07-17T01:20:02.897Z,13.23
2018-07-17T01:20:34.130Z,13.43
2018-07-17T01:21:05.326Z,13.27
2018-07-17T01:21:36.573Z,13.13
2018-07-17T01:22:07.761Z,13.13
2018-07-17T01:22:38.934Z,13.37
2018-07-17T01:23:10.129Z,12.50
2018-07-17T01:23:41.514Z,12.57
2018-07-17T01:24:12.757Z,12.57
2018-07-17T01:24:43.945Z,12.83
2018-07-17T01:25:15.172Z,13.00
2018-07-17T01:25:46.394Z,12.60
2018-07-17T01:26:17.589Z,12.87
2018-07-17T01:26:48.773Z,12.70
2018-07-17T01:27:19.952Z,14.13
2018-07-17T01:27:51.135Z,12.80
2018-07-17T01:28:22.304Z,12.37
2018-07-17T01:28:53.533Z,13.93
2018-07-17T01:29:24.800Z,13.57
2018-07-17T01:29:55.990Z,13.60
2018-07-17T01:30:27.221Z,13.17
2018-07-17T01:30:58.405Z,12.87
2018-07-17T01:31:29.583Z,12.13
2018-07-17T01:32:00.780Z,13.33
2018-07-17T01:32:32.004Z,13.10
2018-07-17T01:33:03.188Z,13.03
2018-07-17T01:33:34.412Z,12.70
2018-07-17T01:34:05.604Z,12.57
2018-07-17T01:34:36.972Z,13.27
2018-07-17T01:35:08.216Z,13.17
2018-07-17T01:35:39.403Z,12.70
2018-07-17T01:36:10.625Z,12.43
2018-07-17T01:36:41.817Z,12.70
2018-07-17T01:37:13.042Z,13.03
2018-07-17T01:37:44.220Z,11.83
2018-07-17T01:38:15.437Z,13.20
2018-07-17T01:38:46.625Z,13.07
2018-07-17T01:39:17.869Z,13.07
2018-07-17T01:39:49.095Z,13.00
2018-07-17T01:40:20.281Z,13.17
2018-07-17T01:40:51.518Z,11.40
2018-07-17T01:41:22.758Z,13.03
2018-07-17T01:41:53.944Z,12.47
2018-07-17T01:42:25.111Z,12.13
2018-07-17T01:42:56.406Z,13.43
2018-07-17T01:43:27.610Z,13.17
2018-07-17T01:43:58.807Z,12.67
2018-07-17T01:44:29.985Z,12.20
2018-07-17T01:45:01.198Z,13.10
2018-07-17T01:45:32.424Z,12.30
2018-07-17T01:46:03.607Z,12.70
2018-07-17T01:46:34.787Z,12.73
2018-07-17T01:47:05.980Z,12.80
2018-07-17T01:47:37.200Z,13.17
2018-07-17T01:48:08.368Z,13.60
2018-07-17T01:48:39.648Z,12.90
2018-07-17T01:49:10.827Z,12.70
2018-07-17T01:49:41.999Z,12.77
2018-07-17T01:50:13.206Z,13.60
2018-07-17T01:50:44.371Z,12.83
2018-07-17T01:51:15.555Z,13.30
2018-07-17T01:51:46.860Z,13.30
2018-07-17T01:52:18.112Z,13.23
2018-07-17T01:52:49.358Z,13.30
2018-07-17T01:53:20.544Z,13.73
2018-07-17T01:53:51.731Z,13.40
2018-07-17T01:54:22.903Z,14.13
2018-07-17T01:54:54.177Z,14.37
2018-07-17T01:55:25.356Z,14.30
2018-07-17T01:55:56.529Z,13.33
2018-07-17T01:56:27.701Z,13.40
2018-07-17T01:56:58.874Z,11.87
2018-07-17T01:57:30.082Z,12.70
2018-07-17T01:58:01.313Z,13.97
2018-07-17T01:58:32.512Z,13.33
2018-07-17T01:59:03.687Z,13.53
2018-07-17T01:59:34.878Z,13.17
2018-07-17T02:00:06.052Z,12.70
2018-07-17T02:00:37.267Z,11.73
2018-07-17T02:01:08.501Z,12.63
2018-07-17T02:01:39.737Z,13.53
2018-07-17T02:02:10.920Z,13.10
2018-07-17T02:02:42.091Z,13.43
2018-07-17T02:03:13.312Z,12.70
2018-07-17T02:03:44.541Z,12.93
2018-07-17T02:04:15.948Z,12.97
2018-07-17T02:04:47.138Z,13.60
2018-07-17T02:05:18.389Z,12.43
2018-07-17T02:05:49.576Z,13.43
2018-07-17T02:06:20.751Z,14.27
2018-07-17T02:06:51.924Z,12.80
2018-07-17T02:07:23.102Z,13.20
2018-07-17T02:07:54.373Z,13.53
2018-07-17T02:08:25.556Z,13.67
2018-07-17T02:08:56.788Z,13.47
2018-07-17T02:09:27.982Z,13.77
2018-07-17T02:09:59.169Z,14.67
2018-07-17T02:10:30.409Z,14.57
2018-07-17T02:11:01.634Z,14.33
2018-07-17T02:11:32.816Z,13.90
2018-07-17T02:12:03.981Z,14.93
2018-07-17T02:12:35.232Z,15.13
2018-07-17T02:13:06.404Z,13.80
2018-07-17T02:13:37.629Z,14.97
2018-07-17T02:14:08.850Z,14.50
2018-07-17T02:14:40.076Z,14.13
2018-07-17T02:15:11.305Z,14.43
2018-07-17T02:15:42.660Z,14.87
2018-07-17T02:16:13.885Z,14.83
2018-07-17T02:16:45.118Z,14.13
2018-07-17T02:17:16.296Z,14.00
2018-07-17T02:17:47.536Z,14.43
2018-07-17T02:18:18.721Z,13.90
2018-07-17T02:18:49.968Z,14.53
2018-07-17T02:19:21.190Z,14.40
2018-07-17T02:19:52.368Z,13.37
2018-07-17T02:20:23.597Z,14.90
2018-07-17T02:20:54.777Z,13.47
2018-07-17T02:21:25.951Z,14.47
2018-07-17T02:21:57.179Z,13.70
2018-07-17T02:22:28.364Z,13.57
2018-07-17T02:22:59.669Z,14.00
2018-07-17T02:23:30.857Z,13.50
2018-07-17T02:24:02.121Z,14.17
2018-07-17T02:24:33.390Z,13.73
2018-07-17T02:25:04.583Z,13.77
2018-07-17T02:25:35.761Z,14.20
2018-07-17T02:26:06.982Z,14.70
2018-07-17T02:26:38.173Z,14.17
2018-07-17T02:27:09.392Z,13.87
2018-07-17T02:27:40.572Z,13.73
2018-07-17T02:28:11.756Z,14.17
2018-07-17T02:28:42.936Z,14.27
2018-07-17T02:29:14.112Z,13.43
2018-07-17T02:29:45.344Z,13.23
2018-07-17T02:30:16.528Z,14.77
2018-07-17T02:30:47.753Z,14.07
2018-07-17T02:31:18.936Z,14.10
2018-07-17T02:31:50.327Z,13.30
2018-07-17T02:32:21.615Z,13.37
2018-07-17T02:32:52.872Z,13.53
2018-07-17T02:33:24.203Z,13.50
2018-07-17T02:33:55.441Z,14.03
2018-07-17T02:34:26.702Z,13.37
2018-07-17T02:34:57.879Z,13.37
2018-07-17T02:35:29.131Z,13.50
2018-07-17T02:36:00.365Z,14.17
2018-07-17T02:36:31.548Z,13.43
2018-07-17T02:37:02.805Z,13.90
2018-07-17T02:37:34.037Z,13.13
2018-07-17T02:38:05.220Z,13.17
2018-07-17T02:38:36.490Z,13.57
2018-07-17T02:39:07.685Z,13.83
2018-07-17T02:39:38.909Z,13.33
2018-07-17T02:40:10.141Z,14.03
2018-07-17T02:40:41.369Z,14.07
2018-07-17T02:41:12.549Z,13.10
2018-07-17T02:41:43.779Z,12.90
2018-07-17T02:42:15.121Z,12.83
2018-07-17T02:42:46.354Z,12.13
2018-07-17T02:43:17.613Z,12.40
2018-07-17T02:43:48.853Z,13.77
2018-07-17T02:44:20.054Z,13.83
2018-07-17T02:44:51.517Z,12.53
2018-07-17T02:45:22.706Z,13.57
2018-07-17T02:45:53.989Z,13.57
2018-07-17T02:46:25.179Z,13.80
2018-07-17T02:46:56.358Z,13.13
2018-07-17T02:47:27.545Z,13.23
2018-07-17T02:47:58.741Z,13.40
2018-07-17T02:48:30.317Z,13.70
2018-07-17T02:49:01.513Z,12.80
2018-07-17T02:49:32.680Z,13.37
2018-07-17T02:50:03.948Z,13.63
2018-07-17T02:50:35.140Z,13.03
2018-07-17T02:51:06.362Z,12.87
2018-07-17T02:51:37.554Z,13.13
2018-07-17T02:52:08.743Z,13.20
2018-07-17T02:52:39.961Z,12.27
2018-07-17T02:53:11.144Z,13.40
2018-07-17T02:53:42.404Z,13.37
2018-07-17T02:54:13.595Z,13.80
2018-07-17T02:54:44.765Z,13.37
2018-07-17T02:55:16.041Z,12.60
2018-07-17T02:55:47.228Z,13.20
2018-07-17T02:56:18.451Z,13.40
2018-07-17T02:56:49.628Z,13.07
2018-07-17T02:57:20.849Z,13.83
2018-07-17T02:57:52.985Z,13.00
2018-07-17T02:58:24.156Z,12.77
2018-07-17T02:58:55.326Z,13.60
2018-07-17T02:59:26.509Z,13.23
2018-07-17T02:59:57.682Z,13.20
2018-07-17T03:00:28.905Z,13.93
2018-07-17T03:01:00.158Z,13.40
2018-07-17T03:01:31.342Z,13.70
2018-07-17T03:02:02.516Z,13.80
2018-07-17T03:02:33.692Z,13.40
2018-07-17T03:03:04.948Z,13.43
2018-07-17T03:03:36.128Z,13.73
2018-07-17T03:04:07.344Z,13.23
2018-07-17T03:04:38.516Z,13.53
2018-07-17T03:05:09.798Z,13.43
2018-07-17T03:05:40.984Z,13.87
2018-07-17T03:06:12.209Z,13.53
2018-07-17T03:06:43.454Z,13.50
2018-07-17T03:07:14.702Z,13.47
2018-07-17T03:07:46.049Z,13.90
2018-07-17T03:08:17.228Z,14.17
2018-07-17T03:08:48.457Z,13.60
2018-07-17T03:09:19.637Z,14.00
2018-07-17T03:09:50.815Z,13.70
2018-07-17T03:10:22.036Z,14.63
2018-07-17T03:10:53.224Z,13.90
2018-07-17T03:11:24.518Z,13.83
2018-07-17T03:11:55.744Z,13.70
2018-07-17T03:12:26.969Z,13.63
2018-07-17T03:12:58.201Z,13.57
2018-07-17T03:13:29.381Z,13.83
2018-07-17T03:14:00.610Z,13.93
2018-07-17T03:14:31.859Z,13.93
2018-07-17T03:15:03.049Z,12.90
2018-07-17T03:15:34.277Z,14.17
2018-07-17T03:16:05.455Z,13.57
2018-07-17T03:16:36.627Z,13.23
2018-07-17T03:17:07.856Z,13.77
2018-07-17T03:17:39.077Z,12.87
2018-07-17T03:18:10.307Z,14.20
2018-07-17T03:18:41.574Z,13.77
2018-07-17T03:19:12.756Z,14.43
2018-07-17T03:19:43.933Z,15.20
2018-07-17T03:20:15.177Z,14.63
2018-07-17T03:20:46.418Z,14.53
2018-07-17T03:21:17.698Z,14.50
2018-07-17T03:21:48.879Z,14.87
2018-07-17T03:22:20.105Z,13.93
2018-07-17T03:22:51.277Z,14.40
2018-07-17T03:23:22.528Z,15.00
2018-07-17T03:23:53.764Z,15.17
2018-07-17T03:24:24.965Z,15.60
2018-07-17T03:24:56.159Z,15.57
2018-07-17T03:25:27.337Z,14.40
2018-07-17T03:25:58.567Z,15.80
2018-07-17T03:26:29.856Z,15.43
2018-07-17T03:27:01.038Z,15.87
2018-07-17T03:27:32.217Z,14.63
2018-07-17T03:28:03.392Z,14.63
2018-07-17T03:28:34.576Z,14.67
2018-07-17T03:29:05.920Z,15.13
2018-07-17T03:29:37.228Z,16.17
2018-07-17T03:30:08.438Z,15.33
2018-07-17T03:30:39.615Z,15.77
2018-07-17T03:31:10.827Z,16.17
2018-07-17T03:31:42.095Z,16.40
2018-07-17T03:32:13.269Z,17.10
2018-07-17T03:32:44.445Z,16.10
2018-07-17T03:33:15.631Z,16.60
2018-07-17T03:33:46.821Z,16.23
2018-07-17T03:34:17.992Z,17.00
2018-07-17T03:34:49.201Z,17.53
2018-07-17T03:35:20.368Z,16.33
2018-07-17T03:35:51.597Z,16.23
2018-07-17T03:36:22.794Z,15.93
2018-07-17T03:36:54.053Z,15.70
2018-07-17T03:37:25.250Z,16.20
2018-07-17T03:37:56.469Z,16.20
2018-07-17T03:38:27.649Z,16.77
2018-07-17T03:38:58.894Z,16.07
2018-07-17T03:39:30.076Z,16.97
2018-07-17T03:40:01.297Z,16.50
2018-07-17T03:40:32.525Z,17.50
2018-07-17T03:41:03.702Z,16.80
2018-07-17T03:41:34.877Z,17.97
2018-07-17T03:42:06.114Z,16.87
2018-07-17T03:42:37.341Z,16.93
2018-07-17T03:43:08.534Z,16.67
2018-07-17T03:43:39.715Z,16.73
2018-07-17T03:44:10.937Z,16.63
2018-07-17T03:44:42.152Z,16.80
2018-07-17T03:45:13.320Z,16.70
2018-07-17T03:45:44.520Z,17.00
2018-07-17T03:46:15.688Z,16.57
2018-07-17T03:46:46.856Z,16.20
2018-07-17T03:47:18.086Z,15.00
2018-07-17T03:47:49.333Z,16.53
2018-07-17T03:48:20.528Z,16.93
2018-07-17T03:48:51.750Z,15.97
2018-07-17T03:49:22.937Z,17.43
2018-07-17T03:49:54.436Z,17.40
2018-07-17T03:50:25.624Z,16.30
2018-07-17T03:50:56.838Z,16.97
2018-07-17T03:51:28.050Z,16.83
2018-07-17T03:51:59.217Z,16.37
2018-07-17T03:52:30.437Z,15.93
2018-07-17T03:53:01.617Z,16.73
2018-07-17T03:53:32.788Z,17.30
2018-07-17T03:54:03.965Z,17.40
2018-07-17T03:54:35.133Z,16.87
2018-07-17T03:55:06.363Z,16.87
2018-07-17T03:55:37.600Z,16.40
2018-07-17T03:56:08.776Z,16.30
2018-07-17T03:56:39.940Z,16.63
2018-07-17T03:57:11.144Z,16.03
2018-07-17T03:57:42.316Z,16.27
2018-07-17T03:58:13.499Z,15.27
2018-07-17T03:58:45.201Z,15.50
2018-07-17T03:59:16.396Z,15.57
2018-07-17T03:59:47.601Z,15.37
2018-07-17T04:00:18.822Z,15.10
2018-07-17T04:00:50.147Z,15.40
2018-07-17T04:01:21.357Z,14.93
2018-07-17T04:01:52.579Z,14.67
2018-07-17T04:02:23.753Z,14.50
2018-07-17T04:02:55.101Z,13.80
2018-07-17T04:03:26.349Z,14.93
2018-07-17T04:03:57.580Z,14.90
2018-07-17T04:04:28.806Z,15.70
2018-07-17T04:05:00.036Z,14.70
2018-07-17T04:05:31.210Z,15.47
2018-07-17T04:06:02.386Z,15.00
2018-07-17T04:06:33.587Z,15.30
2018-07-17T04:07:04.795Z,16.03
2018-07-17T04:07:36.004Z,16.20
2018-07-17T04:08:07.258Z,15.80
2018-07-17T04:08:38.459Z,15.93
2018-07-17T04:09:09.656Z,15.80
2018-07-17T04:09:40.876Z,15.53
2018-07-17T04:10:12.048Z,14.77
2018-07-17T04:10:43.273Z,15.60
2018-07-17T04:11:14.456Z,14.70
2018-07-17T04:11:45.798Z,15.17
2018-07-17T04:12:16.972Z,15.53
2018-07-17T04:12:48.265Z,16.03
2018-07-17T04:13:19.464Z,15.67
2018-07-17T04:13:50.652Z,15.63
2018-07-17T04:14:21.826Z,15.17
2018-07-17T04:14:53.093Z,16.03
2018-07-17T04:15:24.286Z,15.87
2018-07-17T04:15:55.456Z,15.97
2018-07-17T04:16:26.633Z,16.27
2018-07-17T04:16:57.869Z,15.27
2018-07-17T04:17:29.049Z,15.53
2018-07-17T04:18:00.224Z,15.53
2018-07-17T04:18:31.428Z,16.23
2018-07-17T04:19:02.603Z,15.50
2018-07-17T04:19:33.821Z,15.97
2018-07-17T04:20:05.006Z,16.40
2018-07-17T04:20:36.190Z,14.73
2018-07-17T04:21:07.366Z,14.43
2018-07-17T04:21:38.592Z,14.53
2018-07-17T04:22:09.773Z,15.47
2018-07-17T04:22:40.998Z,14.57
2018-07-17T04:23:12.181Z,14.67
2018-07-17T04:23:43.352Z,12.93
2018-07-17T04:24:14.520Z,13.10
2018-07-17T04:24:45.748Z,13.83
2018-07-17T04:25:16.920Z,12.97
2018-07-17T04:25:48.107Z,14.20
2018-07-17T04:26:19.284Z,15.17
2018-07-17T04:26:50.456Z,14.27
2018-07-17T04:27:21.631Z,14.93
2018-07-17T04:27:52.802Z,14.47
2018-07-17T04:28:24.030Z,14.07
2018-07-17T04:28:55.372Z,14.37
2018-07-17T04:29:26.549Z,14.00
2018-07-17T04:29:57.813Z,13.77
2018-07-17T04:30:29.050Z,12.73
2018-07-17T04:31:00.280Z,14.17
2018-07-17T04:31:31.549Z,13.13
2018-07-17T04:32:02.724Z,13.53
2018-07-17T04:32:33.896Z,13.27
2018-07-17T04:33:05.066Z,13.50
2018-07-17T04:33:36.240Z,13.87
2018-07-17T04:34:07.419Z,13.90
2018-07-17T04:34:38.612Z,14.10
2018-07-17T04:35:09.796Z,14.60
2018-07-17T04:35:40.973Z,14.50
2018-07-17T04:36:12.250Z,13.53
2018-07-17T04:36:43.437Z,14.17
2018-07-17T04:37:14.716Z,13.67
2018-07-17T04:37:45.897Z,13.10
2018-07-17T04:38:17.094Z,13.53
2018-07-17T04:38:48.350Z,12.73
2018-07-17T04:39:19.600Z,12.93
2018-07-17T04:39:50.820Z,12.23
2018-07-17T04:40:22.003Z,12.53
2018-07-17T04:40:53.191Z,13.07
2018-07-17T04:41:24.426Z,12.37
2018-07-17T04:41:55.609Z,12.27
2018-07-17T04:42:26.785Z,11.73
2018-07-17T04:42:58.124Z,12.10
2018-07-17T04:43:29.378Z,12.00
2018-07-17T04:44:00.564Z,11.43
2018-07-17T04:44:31.776Z,12.60
2018-07-17T04:45:02.956Z,12.37
2018-07-17T04:45:34.194Z,12.57
2018-07-17T04:46:05.392Z,12.97
2018-07-17T04:46:36.830Z,13.63
2018-07-17T04:47:08.020Z,12.47
2018-07-17T04:47:39.205Z,12.67
2018-07-17T04:48:10.398Z,12.20
2018-07-17T04:48:41.669Z,12.43
2018-07-17T04:49:14.556Z,12.97
2018-07-17T04:49:47.652Z,12.87
2018-07-17T04:50:18.840Z,12.33
2018-07-17T04:50:50.061Z,12.60
2018-07-17T04:51:21.343Z,12.77
2018-07-17T04:51:52.597Z,13.07
2018-07-17T04:52:23.803Z,13.77
2018-07-17T04:52:55.021Z,12.87
2018-07-17T04:53:26.214Z,13.57
2018-07-17T04:53:57.553Z,14.53
2018-07-17T04:54:28.724Z,14.70
2018-07-17T04:54:59.986Z,15.00
2018-07-17T04:55:31.269Z,14.70
2018-07-17T04:56:02.455Z,14.80
2018-07-17T04:56:33.649Z,13.97
2018-07-17T04:57:04.845Z,14.70
2018-07-17T04:57:36.029Z,14.37
2018-07-17T04:58:07.222Z,14.67
2018-07-17T04:58:38.456Z,13.93
2018-07-17T04:59:09.692Z,14.77
2018-07-17T04:59:40.918Z,14.07
2018-07-17T05:00:12.120Z,14.20
2018-07-17T05:00:43.401Z,14.50
2018-07-17T05:01:14.628Z,13.90
2018-07-17T05:01:45.891Z,13.30
2018-07-17T05:02:17.085Z,13.53
2018-07-17T05:02:48.427Z,13.27
2018-07-17T05:03:19.609Z,13.33
2018-07-17T05:03:50.805Z,12.30
2018-07-17T05:04:22.148Z,12.50
2018-07-17T05:04:53.386Z,13.60
2018-07-17T05:05:24.564Z,12.97
2018-07-17T05:05:55.829Z,13.27
2018-07-17T05:06:27.021Z,13.70
2018-07-17T05:06:58.200Z,13.17
2018-07-17T05:07:29.388Z,13.00
2018-07-17T05:08:00.782Z,13.47
2018-07-17T05:08:32.089Z,11.97
2018-07-17T05:09:03.321Z,12.67
2018-07-17T05:09:35.440Z,12.90
2018-07-17T05:10:06.681Z,13.00
2018-07-17T05:10:37.878Z,12.83
2018-07-17T05:11:09.062Z,12.47
2018-07-17T05:11:40.409Z,13.03
2018-07-17T05:12:12.357Z,12.93
2018-07-17T05:12:43.533Z,13.30
2018-07-17T05:13:14.716Z,12.60
2018-07-17T05:13:45.896Z,13.07
2018-07-17T05:14:17.089Z,12.93
2018-07-17T05:14:48.266Z,13.63
2018-07-17T05:15:19.468Z,12.47
2018-07-17T05:15:50.644Z,11.87
2018-07-17T05:16:21.883Z,12.60
2018-07-17T05:16:53.188Z,12.73
2018-07-17T05:17:24.383Z,12.13
2018-07-17T05:17:55.591Z,11.80
2018-07-17T05:18:26.772Z,11.68
2018-07-17T05:18:57.940Z,12.00
2018-07-17T05:19:29.177Z,10.98
2018-07-17T05:20:00.356Z,11.68
2018-07-17T05:20:31.532Z,11.93
2018-07-17T05:21:02.709Z,11.43
2018-07-17T05:21:33.928Z,11.65
2018-07-17T05:22:05.198Z,11.65
2018-07-17T05:22:36.951Z,11.80
2018-07-17T05:23:08.226Z,11.70
2018-07-17T05:23:39.419Z,11.43
2018-07-17T05:24:10.604Z,11.28
2018-07-17T05:24:41.788Z,11.40
2018-07-17T05:25:13.028Z,11.28
2018-07-17T05:25:44.266Z,11.12
2018-07-17T05:26:15.520Z,10.25
2018-07-17T05:26:46.936Z,10.78
2018-07-17T05:27:18.153Z,10.98
2018-07-17T05:27:49.429Z,11.18
2018-07-17T05:28:20.620Z,11.55
2018-07-17T05:28:51.864Z,10.93
2018-07-17T05:29:24.523Z,11.50
2018-07-17T05:29:55.724Z,11.43
2018-07-17T05:30:26.988Z,11.73
2018-07-17T05:30:58.177Z,11.03
2018-07-17T05:31:29.365Z,11.38
2018-07-17T05:32:00.548Z,11.48
2018-07-17T05:32:31.821Z,11.68
2018-07-17T05:33:03.073Z,11.25
2018-07-17T05:33:34.257Z,11.43
2018-07-17T05:34:05.509Z,11.78
2018-07-17T05:34:36.698Z,11.40
2018-07-17T05:35:07.965Z,11.45
2018-07-17T05:35:39.173Z,10.50
2018-07-17T05:36:10.353Z,11.65
2018-07-17T05:36:41.552Z,11.97
2018-07-17T05:37:13.868Z,11.05
2018-07-17T05:37:45.121Z,11.12
2018-07-17T05:38:16.322Z,11.60
2018-07-17T05:38:47.527Z,9.65
2018-07-17T05:39:18.709Z,10.75
2018-07-17T05:39:49.960Z,10.28
2018-07-17T05:40:21.161Z,10.18
2018-07-17T05:40:52.393Z,10.48
2018-07-17T05:41:23.656Z,10.85
2018-07-17T05:41:54.866Z,10.72
2018-07-17T05:42:26.059Z,10.00
2018-07-17T05:42:57.318Z,9.20
2018-07-17T05:43:28.502Z,9.28
2018-07-17T05:43:59.697Z,9.28
2018-07-17T05:44:30.920Z,10.15
2018-07-17T05:45:02.105Z,9.60
2018-07-17T05:45:33.344Z,9.65
2018-07-17T05:46:04.604Z,10.03
2018-07-17T05:46:35.891Z,9.40
2018-07-17T05:47:07.042Z,10.43
2018-07-17T05:47:38.301Z,9.98
2018-07-17T05:48:09.548Z,11.12
2018-07-17T05:48:40.733Z,10.28
2018-07-17T05:49:11.921Z,10.25
2018-07-17T05:49:43.103Z,9.45
2018-07-17T05:50:14.298Z,9.70
2018-07-17T05:50:45.462Z,9.85
2018-07-17T05:51:16.693Z,9.40
2018-07-17T05:51:47.913Z,10.18
2018-07-17T05:52:19.125Z,10.85
2018-07-17T05:52:50.334Z,10.13
2018-07-17T05:53:21.569Z,10.25
2018-07-17T05:53:52.810Z,10.65
2018-07-17T05:54:24.017Z,10.48
2018-07-17T05:54:55.221Z,11.20
2018-07-17T05:55:26.408Z,10.63
2018-07-17T05:55:57.618Z,9.75
2018-07-17T05:56:28.873Z,10.98
2018-07-17T05:57:00.053Z,10.48
2018-07-17T05:57:31.295Z,11.63
2018-07-17T05:58:03.293Z,11.33
2018-07-17T05:58:34.509Z,11.12
2018-07-17T05:59:05.750Z,12.35
2018-07-17T05:59:36.938Z,12.40
2018-07-17T06:00:09.154Z,11.20
2018-07-17T06:00:40.427Z,11.18
2018-07-17T06:01:11.631Z,10.88
2018-07-17T06:01:42.865Z,11.65
2018-07-17T06:02:14.058Z,11.85
2018-07-17T06:02:47.070Z,11.45
2018-07-17T06:03:18.383Z,12.00
2018-07-17T06:03:49.637Z,11.65
2018-07-17T06:04:21.589Z,11.28
2018-07-17T06:04:53.646Z,11.38
2018-07-17T06:05:24.842Z,11.93
2018-07-17T06:05:56.106Z,10.60
2018-07-17T06:06:27.645Z,11.33
2018-07-17T06:06:58.852Z,11.30
2018-07-17T06:07:30.043Z,10.50
2018-07-17T06:08:08.459Z,9.85
2018-07-17T06:08:40.692Z,10.10
2018-07-17T06:09:11.939Z,10.35
2018-07-17T06:09:43.228Z,10.18
2018-07-17T06:10:14.464Z,10.03
2018-07-17T06:10:47.636Z,9.25
2018-07-17T06:11:18.879Z,9.88
2018-07-17T06:11:50.656Z,9.90
2018-07-17T06:12:21.885Z,10.30
2018-07-17T06:12:53.093Z,10.18
2018-07-17T06:13:24.333Z,9.78
2018-07-17T06:13:55.896Z,9.93
2018-07-17T06:14:27.141Z,10.45
2018-07-17T06:14:59.410Z,10.03
2018-07-17T06:15:31.775Z,10.08
2018-07-17T06:16:03.001Z,10.28
2018-07-17T06:16:34.214Z,9.98
2018-07-17T06:17:06.134Z,10.38
2018-07-17T06:17:37.422Z,9.80
2018-07-17T06:18:08.714Z,9.98
2018-07-17T06:18:39.958Z,9.45
2018-07-17T06:19:12.412Z,9.48
2018-07-17T06:19:43.600Z,9.23
2018-07-17T06:20:14.780Z,9.05
2018-07-17T06:20:46.820Z,9.45
2018-07-17T06:21:18.308Z,9.68
2018-07-17T06:21:49.599Z,10.95
2018-07-17T06:22:20.854Z,9.10
2018-07-17T06:22:52.104Z,10.58
2018-07-17T06:23:23.305Z,9.58
2018-07-17T06:23:54.492Z,9.85
2018-07-17T06:24:25.759Z,9.63
2018-07-17T06:24:57.623Z,9.30
2018-07-17T06:25:28.848Z,9.38
2018-07-17T06:26:00.438Z,9.55
2018-07-17T06:26:32.516Z,9.65
2018-07-17T06:27:05.426Z,9.65
2018-07-17T06:27:36.617Z,10.38
2018-07-17T06:28:08.333Z,9.68
2018-07-17T06:28:39.530Z,10.55
2018-07-17T06:29:11.037Z,9.90
2018-07-17T06:29:42.253Z,9.78
2018-07-17T06:30:13.793Z,10.58
2018-07-17T06:30:45.872Z,10.13
2018-07-17T06:31:17.909Z,10.40
2018-07-17T06:31:49.541Z,10.75
2018-07-17T06:32:20.769Z,10.18
2018-07-17T06:32:52.017Z,10.25
2018-07-17T06:33:23.205Z,10.43
2018-07-17T06:33:55.118Z,10.58
2018-07-17T06:34:27.008Z,11.45
2018-07-17T06:34:58.836Z,10.48
2018-07-17T06:35:32.607Z,9.53
2018-07-17T06:36:03.820Z,10.18
2018-07-17T06:36:35.000Z,10.32
2018-07-17T06:37:06.256Z,10.38
2018-07-17T06:37:37.742Z,10.45
2018-07-17T06:38:08.936Z,11.05
2018-07-17T06:38:40.121Z,10.40
2018-07-17T06:39:11.320Z,10.48
2018-07-17T06:39:42.502Z,10.35
2018-07-17T06:40:13.694Z,9.90
2018-07-17T06:40:45.825Z,10.43
2018-07-17T06:41:17.000Z,11.50
2018-07-17T06:41:48.237Z,10.55
2018-07-17T06:42:19.502Z,10.03
2018-07-17T06:42:50.687Z,10.40
2018-07-17T06:43:21.864Z,10.45
2018-07-17T06:43:53.064Z,10.18
2018-07-17T06:44:24.345Z,9.45
2018-07-17T06:44:55.526Z,9.40